createdAt,value
2023-05-11T00:00:59.260Z,99145.00
2023-05-11T00:03:25.945Z,99139.06
2023-05-11T00:05:52.510Z,99135.44
2023-05-11T00:08:18.847Z,99137.50
2023-05-11T00:10:45.229Z,99135.47
2023-05-11T00:13:11.641Z,99130.03
2023-05-11T00:15:38.182Z,99136.31
2023-05-11T00:18:04.778Z,99140.16
2023-05-11T00:20:31.224Z,99142.38
2023-05-11T00:22:57.559Z,99141.69
2023-05-11T00:25:23.926Z,99143.47
2023-05-11T00:27:50.344Z,99143.59
2023-05-11T00:30:16.930Z,99147.50
2023-05-11T00:32:43.564Z,99139.50
2023-05-11T00:35:09.929Z,99135.78
2023-05-11T00:37:36.309Z,99142.44
2023-05-11T00:40:03.110Z,99131.25
2023-05-11T00:42:29.567Z,99144.13
2023-05-11T00:44:55.981Z,99149.53
2023-05-11T00:47:22.521Z,99138.41
2023-05-11T00:49:48.880Z,99144.56
2023-05-11T00:52:15.272Z,99142.88
2023-05-11T00:54:41.834Z,99150.78
2023-05-11T00:57:08.221Z,99144.75
2023-05-11T00:59:34.543Z,99151.19
2023-05-11T01:02:00.948Z,99141.16
2023-05-11T01:04:27.290Z,99139.53
2023-05-11T01:06:53.601Z,99138.09
2023-05-11T01:09:20.121Z,99138.72
2023-05-11T01:11:46.710Z,99135.66
2023-05-11T01:14:13.059Z,99139.09
2023-05-11T01:16:39.933Z,99137.47
2023-05-11T01:19:07.369Z,99143.69
2023-05-11T01:21:33.928Z,99140.03
2023-05-11T01:24:00.434Z,99133.66
2023-05-11T01:26:27.294Z,99132.25
2023-05-11T01:28:53.678Z,99131.63
2023-05-11T01:31:20.974Z,99138.06
2023-05-11T01:33:47.396Z,99139.56
2023-05-11T01:36:13.890Z,99137.75
2023-05-11T01:38:40.331Z,99142.44
2023-05-11T01:41:06.667Z,99139.59
2023-05-11T01:43:32.994Z,99135.94
2023-05-11T01:45:59.500Z,99129.34
2023-05-11T01:48:25.945Z,99128.75
2023-05-11T01:50:53.348Z,99126.25
2023-05-11T01:53:19.866Z,99130.38
2023-05-11T01:55:46.450Z,99135.28
2023-05-11T01:58:15.142Z,99141.59
2023-05-11T02:00:41.778Z,99140.34
2023-05-11T02:03:08.226Z,99138.41
2023-05-11T02:05:34.620Z,99142.34
2023-05-11T02:08:01.471Z,99136.41
2023-05-11T02:10:27.952Z,99126.91
2023-05-11T02:12:54.560Z,99133.41
2023-05-11T02:15:22.370Z,99137.97
2023-05-11T02:17:48.861Z,99135.69
2023-05-11T02:20:15.196Z,99142.09
2023-05-11T02:22:41.597Z,99138.84
2023-05-11T02:25:08.240Z,99139.06
2023-05-11T02:27:34.596Z,99134.72
2023-05-11T02:30:01.058Z,99130.94
2023-05-11T02:32:27.569Z,99137.56
2023-05-11T02:34:53.898Z,99134.31
2023-05-11T02:37:20.297Z,99135.09
2023-05-11T02:39:46.705Z,99130.16
2023-05-11T02:42:13.117Z,99126.81
2023-05-11T02:44:40.345Z,99123.56
2023-05-11T02:47:06.845Z,99127.75
2023-05-11T02:49:34.919Z,99129.25
2023-05-11T02:52:01.462Z,99130.50
2023-05-11T02:54:28.037Z,99129.88
2023-05-11T02:56:54.944Z,99118.72
2023-05-11T02:59:21.307Z,99129.50
2023-05-11T03:01:47.851Z,99129.81
2023-05-11T03:04:14.281Z,99135.75
2023-05-11T03:06:41.187Z,99118.53
2023-05-11T03:09:10.181Z,99127.38
2023-05-11T03:11:41.800Z,99121.59
2023-05-11T03:14:08.380Z,99126.38
2023-05-11T03:16:35.307Z,99124.78
2023-05-11T03:19:03.795Z,99124.69
2023-05-11T03:21:31.286Z,99128.75
2023-05-11T03:23:57.778Z,99130.47
2023-05-11T03:26:24.371Z,99136.66
2023-05-11T03:28:50.843Z,99137.53
2023-05-11T03:31:17.292Z,99123.97
2023-05-11T03:33:43.875Z,99130.34
2023-05-11T03:36:10.330Z,99128.31
2023-05-11T03:38:36.777Z,99138.53
2023-05-11T03:41:04.393Z,99132.44
2023-05-11T03:43:33.060Z,99143.97
2023-05-11T03:45:59.880Z,99143.19
2023-05-11T03:48:26.425Z,99144.81
2023-05-11T03:50:52.856Z,99133.63
2023-05-11T03:53:19.256Z,99135.44
2023-05-11T03:55:45.769Z,99134.03
2023-05-11T03:58:12.345Z,99130.38
2023-05-11T04:00:38.894Z,99135.53
2023-05-11T04:03:05.566Z,99129.69
2023-05-11T04:05:32.058Z,99139.56
2023-05-11T04:08:01.292Z,99144.34
2023-05-11T04:10:27.905Z,99144.34
2023-05-11T04:12:54.366Z,99144.34
2023-05-11T04:15:20.775Z,99144.94
2023-05-11T04:17:47.843Z,99140.31
2023-05-11T04:20:14.417Z,99121.38
2023-05-11T04:22:41.068Z,99143.78
2023-05-11T04:25:07.667Z,99142.38
2023-05-11T04:27:34.127Z,99135.59
2023-05-11T04:30:00.846Z,99138.22
2023-05-11T04:32:28.868Z,99148.34
2023-05-11T04:34:55.735Z,99143.66
2023-05-11T04:37:24.326Z,99148.06
2023-05-11T04:39:51.909Z,99147.94
2023-05-11T04:42:18.701Z,99148.84
2023-05-11T04:44:49.022Z,99144.56
2023-05-11T04:47:17.806Z,99151.78
2023-05-11T04:49:46.182Z,99152.69
2023-05-11T04:52:13.110Z,99149.38
2023-05-11T04:54:41.795Z,99147.22
2023-05-11T04:57:08.309Z,99149.69
2023-05-11T04:59:34.860Z,99157.22
2023-05-11T05:02:01.364Z,99158.00
2023-05-11T05:04:27.903Z,99156.75
2023-05-11T05:06:54.390Z,99157.34
2023-05-11T05:09:21.068Z,99157.78
2023-05-11T05:11:47.934Z,99157.56
2023-05-11T05:14:14.468Z,99164.34
2023-05-11T05:16:40.982Z,99159.41
2023-05-11T05:19:07.785Z,99166.22
2023-05-11T05:21:34.473Z,99166.25
2023-05-11T05:24:01.096Z,99159.63
2023-05-11T05:26:28.613Z,99164.88
2023-05-11T05:28:55.192Z,99170.22
2023-05-11T05:31:21.815Z,99162.19
2023-05-11T05:33:48.847Z,99165.88
2023-05-11T05:36:15.914Z,99164.00
2023-05-11T05:38:42.457Z,99164.81
2023-05-11T05:41:09.152Z,99168.06
2023-05-11T05:43:38.856Z,99169.34
2023-05-11T05:46:05.459Z,99172.03
2023-05-11T05:48:31.976Z,99173.69
2023-05-11T05:50:59.090Z,99170.25
2023-05-11T05:53:25.872Z,99175.00
2023-05-11T05:55:52.334Z,99176.69
2023-05-11T05:58:18.860Z,99173.13
2023-05-11T06:00:45.480Z,99179.53
2023-05-11T06:03:12.714Z,99170.19
2023-05-11T06:05:39.264Z,99173.03
2023-05-11T06:08:10.513Z,99180.16
2023-05-11T06:10:38.589Z,99170.34
2023-05-11T06:13:05.416Z,99184.94
2023-05-11T06:15:31.873Z,99177.63
2023-05-11T06:18:06.074Z,99161.28
2023-05-11T06:20:32.557Z,99186.41
2023-05-11T06:22:59.472Z,99171.34
2023-05-11T06:25:26.060Z,99176.47
2023-05-11T06:27:52.567Z,99175.63
2023-05-11T06:30:19.406Z,99168.56
2023-05-11T06:32:48.048Z,99178.41
2023-05-11T06:35:16.897Z,99184.53
2023-05-11T06:37:44.799Z,99182.53
2023-05-11T06:40:11.485Z,99167.97
2023-05-11T06:42:38.020Z,99180.16
2023-05-11T06:45:07.747Z,99173.78
2023-05-11T06:47:34.263Z,99187.09
2023-05-11T06:50:00.696Z,99164.22
2023-05-11T06:52:27.453Z,99170.03
2023-05-11T06:54:53.822Z,99164.16
2023-05-11T06:57:20.282Z,99167.69
2023-05-11T06:59:46.680Z,99163.75
2023-05-11T07:02:13.080Z,99165.72
2023-05-11T07:04:39.531Z,99158.59
2023-05-11T07:07:05.964Z,99164.56
2023-05-11T07:09:32.333Z,99164.56
2023-05-11T07:11:58.783Z,99172.22
2023-05-11T07:14:25.171Z,99152.47
2023-05-11T07:16:51.632Z,99170.38
2023-05-11T07:19:18.070Z,99157.78
2023-05-11T07:21:46.547Z,99167.97
2023-05-11T07:24:12.960Z,99164.00
2023-05-11T07:26:39.369Z,99159.75
2023-05-11T07:29:05.716Z,99158.59
2023-05-11T07:31:32.089Z,99164.13
2023-05-11T07:33:58.595Z,99164.88
2023-05-11T07:36:24.933Z,99146.22
2023-05-11T07:38:51.283Z,99160.66
2023-05-11T07:41:17.707Z,99156.78
2023-05-11T07:43:44.189Z,99152.88
2023-05-11T07:46:10.591Z,99158.09
2023-05-11T07:48:37.033Z,99162.44
2023-05-11T07:51:03.423Z,99150.13
2023-05-11T07:53:29.797Z,99160.53
2023-05-11T07:55:56.268Z,99149.22
2023-05-11T07:58:22.670Z,99159.41
2023-05-11T08:00:49.084Z,99159.63
2023-05-11T08:03:15.642Z,99156.63
2023-05-11T08:05:42.157Z,99159.34
2023-05-11T08:08:08.649Z,99139.84
2023-05-11T08:10:35.094Z,99152.81
2023-05-11T08:13:01.469Z,99151.28
2023-05-11T08:15:27.858Z,99138.47
2023-05-11T08:17:54.390Z,99145.88
2023-05-11T08:20:20.837Z,99146.31
2023-05-11T08:22:47.210Z,99136.97
2023-05-11T08:25:13.658Z,99146.34
2023-05-11T08:27:40.047Z,99129.16
2023-05-11T08:30:06.437Z,99141.06
2023-05-11T08:32:40.673Z,99144.94
2023-05-11T08:35:17.112Z,99134.81
2023-05-11T08:37:43.767Z,99135.91
2023-05-11T08:40:10.726Z,99131.47
2023-05-11T08:42:38.376Z,99133.00
2023-05-11T08:45:04.786Z,99132.22
2023-05-11T08:47:31.185Z,99131.56
2023-05-11T08:49:57.584Z,99133.97
2023-05-11T08:52:24.017Z,99135.88
2023-05-11T08:54:50.399Z,99126.09
2023-05-11T08:57:16.805Z,99132.47
2023-05-11T08:59:43.327Z,99116.63
2023-05-11T09:02:09.682Z,99125.53
2023-05-11T09:04:36.141Z,99113.03
2023-05-11T09:07:02.816Z,99126.66
2023-05-11T09:09:29.217Z,99119.34
2023-05-11T09:11:55.707Z,99123.13
2023-05-11T09:14:26.976Z,99116.13
2023-05-11T09:16:53.887Z,99115.91
2023-05-11T09:19:20.346Z,99103.47
2023-05-11T09:21:46.819Z,99110.72
2023-05-11T09:24:13.162Z,99110.88
2023-05-11T09:26:39.536Z,99111.81
2023-05-11T09:29:06.078Z,99106.41
2023-05-11T09:31:32.476Z,99104.09
2023-05-11T09:34:00.264Z,99112.44
2023-05-11T09:36:27.399Z,99100.22
2023-05-11T09:38:57.219Z,99117.63
2023-05-11T09:41:23.822Z,99108.06
2023-05-11T09:43:50.261Z,99111.44
2023-05-11T09:46:16.671Z,99104.13
2023-05-11T09:48:43.095Z,99105.94
2023-05-11T09:51:09.543Z,99109.31
2023-05-11T09:53:35.931Z,99112.56
2023-05-11T09:56:02.295Z,99101.00
2023-05-11T09:58:28.748Z,99093.06
2023-05-11T10:00:55.146Z,99105.38
2023-05-11T10:03:22.324Z,99090.25
2023-05-11T10:05:49.984Z,99094.44
2023-05-11T10:08:16.349Z,99082.16
2023-05-11T10:10:42.799Z,99077.34
2023-05-11T10:13:09.231Z,99094.59
2023-05-11T10:15:35.743Z,99080.94
2023-05-11T10:18:02.275Z,99085.94
2023-05-11T10:20:28.774Z,99078.66
2023-05-11T10:22:55.310Z,99066.09
2023-05-11T10:25:21.699Z,99084.09
2023-05-11T10:27:48.168Z,99050.31
2023-05-11T10:30:14.552Z,99070.59
2023-05-11T10:32:40.969Z,99055.44
2023-05-11T10:35:07.422Z,99056.66
2023-05-11T10:37:33.821Z,99060.03
2023-05-11T10:40:00.259Z,99049.06
2023-05-11T10:42:26.708Z,99063.84
2023-05-11T10:44:53.100Z,99041.91
2023-05-11T10:47:19.525Z,99050.19
2023-05-11T10:49:46.064Z,99058.69
2023-05-11T10:52:12.432Z,99038.09
2023-05-11T10:54:38.848Z,99053.72
2023-05-11T10:57:05.351Z,99036.16
2023-05-11T10:59:31.749Z,99046.34
2023-05-11T11:01:58.646Z,99047.81
2023-05-11T11:04:28.092Z,99030.09
2023-05-11T11:06:56.482Z,99048.75
2023-05-11T11:09:23.291Z,99038.25
2023-05-11T11:11:50.343Z,99054.31
2023-05-11T11:14:16.743Z,99039.00
2023-05-11T11:16:43.204Z,99029.91
2023-05-11T11:19:09.847Z,99046.00
2023-05-11T11:21:36.653Z,99024.03
2023-05-11T11:24:03.064Z,99041.59
2023-05-11T11:26:29.507Z,99034.63
2023-05-11T11:28:55.901Z,99030.25
2023-05-11T11:31:22.312Z,99040.06
2023-05-11T11:33:48.754Z,99035.06
2023-05-11T11:36:15.079Z,99042.78
2023-05-11T11:38:41.452Z,99029.84
2023-05-11T11:41:07.967Z,99031.16
2023-05-11T11:43:35.141Z,99039.09
2023-05-11T11:46:03.154Z,99034.69
2023-05-11T11:48:29.696Z,99028.91
2023-05-11T11:50:56.084Z,99028.38
2023-05-11T11:53:22.421Z,99033.53
2023-05-11T11:55:48.887Z,99026.88
2023-05-11T11:58:15.244Z,99028.28
2023-05-11T12:00:41.627Z,99022.63
2023-05-11T12:03:08.157Z,99014.69
2023-05-11T12:05:34.668Z,99017.09
2023-05-11T12:08:01.033Z,99006.81
2023-05-11T12:10:27.493Z,99013.09
2023-05-11T12:12:53.866Z,99019.22
2023-05-11T12:15:20.425Z,99013.16
2023-05-11T12:17:46.969Z,99015.25
2023-05-11T12:20:13.444Z,99010.28
2023-05-11T12:22:39.851Z,99014.44
2023-05-11T12:25:06.240Z,99006.47
2023-05-11T12:27:32.852Z,99008.44
2023-05-11T12:29:59.213Z,98998.47
2023-05-11T12:32:25.662Z,99013.81
2023-05-11T12:34:52.035Z,99008.63
2023-05-11T12:37:18.408Z,98999.94
2023-05-11T12:39:44.825Z,98993.63
2023-05-11T12:42:11.211Z,98997.59
2023-05-11T12:44:37.611Z,98990.06
2023-05-11T12:47:04.064Z,98984.44
2023-05-11T12:49:30.444Z,98991.16
2023-05-11T12:51:56.829Z,98985.34
2023-05-11T12:54:23.286Z,98983.28
2023-05-11T12:56:49.687Z,98978.44
2023-05-11T12:59:16.056Z,98978.44
2023-05-11T13:01:42.577Z,98974.13
2023-05-11T13:04:09.069Z,98961.09
2023-05-11T13:06:35.506Z,98981.28
2023-05-11T13:09:01.959Z,98968.91
2023-05-11T13:11:28.384Z,98962.22
2023-05-11T13:13:54.778Z,98963.19
2023-05-11T13:16:21.387Z,98955.84
2023-05-11T13:18:47.827Z,98952.09
2023-05-11T13:21:14.288Z,98952.59
2023-05-11T13:23:40.707Z,98950.50
2023-05-11T13:26:07.116Z,98942.34
2023-05-11T13:28:33.511Z,98946.22
2023-05-11T13:31:00.106Z,98943.13
2023-05-11T13:33:26.743Z,98932.22
2023-05-11T13:35:53.217Z,98924.25
2023-05-11T13:38:19.756Z,98935.06
2023-05-11T13:40:46.244Z,98933.63
2023-05-11T13:43:12.674Z,98934.06
2023-05-11T13:45:39.204Z,98928.56
2023-05-11T13:48:05.621Z,98924.69
2023-05-11T13:50:32.042Z,98931.44
2023-05-11T13:52:58.528Z,98919.97
2023-05-11T13:55:24.917Z,98921.56
2023-05-11T13:57:51.410Z,98932.25
2023-05-11T14:00:18.189Z,98923.13
2023-05-11T14:02:44.654Z,98916.78
2023-05-11T14:05:11.145Z,98916.00
2023-05-11T14:07:47.846Z,98911.66
2023-05-11T14:10:15.070Z,98915.59
2023-05-11T14:12:41.560Z,98909.66
2023-05-11T14:15:08.012Z,98910.84
2023-05-11T14:17:34.525Z,98912.41
2023-05-11T14:20:00.980Z,98910.81
2023-05-11T14:22:27.473Z,98901.63
2023-05-11T14:24:53.869Z,98909.59
2023-05-11T14:27:20.251Z,98902.84
2023-05-11T14:29:46.577Z,98901.25
2023-05-11T14:32:12.928Z,98895.66
2023-05-11T14:34:39.310Z,98905.56
2023-05-11T14:37:05.634Z,98897.59
2023-05-11T14:39:31.974Z,98894.06
2023-05-11T14:41:58.363Z,98898.81
2023-05-11T14:44:25.294Z,98889.69
2023-05-11T14:46:51.908Z,98898.03
2023-05-11T14:49:18.461Z,98901.16
2023-05-11T14:51:44.796Z,98894.41
2023-05-11T14:54:11.201Z,98898.69
2023-05-11T14:56:37.601Z,98901.06
2023-05-11T14:59:03.954Z,98888.34
2023-05-11T15:01:30.325Z,98899.75
2023-05-11T15:03:56.787Z,98898.66
2023-05-11T15:06:23.204Z,98895.41
2023-05-11T15:08:49.608Z,98901.78
2023-05-11T15:11:16.085Z,98896.97
2023-05-11T15:13:42.432Z,98896.94
2023-05-11T15:16:08.844Z,98895.72
2023-05-11T15:18:35.298Z,98888.97
2023-05-11T15:21:01.743Z,98885.81
2023-05-11T15:23:28.162Z,98894.88
2023-05-11T15:25:54.601Z,98891.72
2023-05-11T15:28:20.950Z,98894.06
2023-05-11T15:30:47.321Z,98885.72
2023-05-11T15:33:13.830Z,98892.44
2023-05-11T15:35:40.241Z,98891.28
2023-05-11T15:38:06.643Z,98884.13
2023-05-11T15:40:33.254Z,98887.34
2023-05-11T15:42:59.659Z,98888.94
2023-05-11T15:45:26.108Z,98890.59
2023-05-11T15:47:52.616Z,98893.25
2023-05-11T15:50:19.234Z,98894.41
2023-05-11T15:52:45.755Z,98888.84
2023-05-11T15:55:12.189Z,98888.94
2023-05-11T15:57:38.625Z,98891.22
2023-05-11T16:00:05.042Z,98894.34
2023-05-11T16:02:34.318Z,98890.41
2023-05-11T16:05:00.755Z,98896.41
2023-05-11T16:07:27.165Z,98894.34
2023-05-11T16:09:53.597Z,98899.84
2023-05-11T16:12:20.231Z,98902.22
2023-05-11T16:14:46.637Z,98901.44
2023-05-11T16:17:13.203Z,98900.66
2023-05-11T16:19:39.726Z,98899.03
2023-05-11T16:22:06.059Z,98900.28
2023-05-11T16:24:34.180Z,98899.44
2023-05-11T16:27:01.090Z,98897.53
2023-05-11T16:29:27.568Z,98901.56
2023-05-11T16:31:54.054Z,98904.72
2023-05-11T16:34:20.444Z,98899.94
2023-05-11T16:36:46.826Z,98901.91
2023-05-11T16:39:13.242Z,98899.19
2023-05-11T16:41:39.617Z,98900.81
2023-05-11T16:44:05.998Z,98893.38
2023-05-11T16:46:32.391Z,98899.16
2023-05-11T16:48:58.907Z,98898.41
2023-05-11T16:51:25.267Z,98895.22
2023-05-11T16:53:51.638Z,98898.03
2023-05-11T16:56:18.002Z,98898.69
2023-05-11T16:58:44.403Z,98901.44
2023-05-11T17:01:10.786Z,98897.59
2023-05-11T17:03:37.244Z,98897.88
2023-05-11T17:06:03.669Z,98900.72
2023-05-11T17:08:30.051Z,98899.16
2023-05-11T17:10:56.425Z,98898.53
2023-05-11T17:13:22.755Z,98900.03
2023-05-11T17:15:49.153Z,98894.03
2023-05-11T17:18:15.635Z,98904.34
2023-05-11T17:20:42.028Z,98897.19
2023-05-11T17:23:08.532Z,98899.59
2023-05-11T17:25:34.854Z,98896.41
2023-05-11T17:28:01.251Z,98907.97
2023-05-11T17:30:39.901Z,98898.03
2023-05-11T17:33:14.225Z,98900.81
2023-05-11T17:35:40.746Z,98895.66
2023-05-11T17:38:07.073Z,98904.81
2023-05-11T17:40:33.435Z,98901.25
2023-05-11T17:42:59.789Z,98900.09
2023-05-11T17:45:26.192Z,98900.91
2023-05-11T17:47:52.551Z,98906.88
2023-05-11T17:50:18.955Z,98899.31
2023-05-11T17:52:45.267Z,98912.41
2023-05-11T17:55:11.661Z,98912.47
2023-05-11T17:57:38.056Z,98909.63
2023-05-11T18:00:04.406Z,98908.59
2023-05-11T18:02:31.386Z,98915.28
2023-05-11T18:04:57.788Z,98909.47
2023-05-11T18:07:24.101Z,98910.59
2023-05-11T18:09:50.431Z,98908.34
2023-05-11T18:12:16.805Z,98919.28
2023-05-11T18:14:43.152Z,98912.91
2023-05-11T18:17:09.476Z,98924.34
2023-05-11T18:19:35.915Z,98927.19
2023-05-11T18:22:02.289Z,98924.16
2023-05-11T18:24:28.743Z,98920.84
2023-05-11T18:26:55.118Z,98927.94
2023-05-11T18:29:21.466Z,98926.88
2023-05-11T18:31:47.891Z,98923.66
2023-05-11T18:34:14.303Z,98929.63
2023-05-11T18:36:40.633Z,98926.94
2023-05-11T18:39:07.020Z,98934.00
2023-05-11T18:41:33.452Z,98928.00
2023-05-11T18:43:59.762Z,98930.06
2023-05-11T18:46:26.131Z,98933.19
2023-05-11T18:48:52.592Z,98938.34
2023-05-11T18:51:18.979Z,98939.13
2023-05-11T18:53:45.354Z,98940.72
2023-05-11T18:56:11.677Z,98944.69
2023-05-11T18:58:38.035Z,98945.94
2023-05-11T19:01:04.409Z,98940.31
2023-05-11T19:03:30.912Z,98949.50
2023-05-11T19:05:57.283Z,98949.09
2023-05-11T19:08:23.611Z,98950.69
2023-05-11T19:10:49.980Z,98955.06
2023-05-11T19:13:16.340Z,98953.94
2023-05-11T19:15:42.657Z,98961.88
2023-05-11T19:18:09.105Z,98967.44
2023-05-11T19:20:35.479Z,98961.50
2023-05-11T19:23:01.804Z,98968.63
2023-05-11T19:25:28.170Z,98969.84
2023-05-11T19:27:54.507Z,98971.03
2023-05-11T19:30:21.014Z,98967.09
2023-05-11T19:32:47.600Z,98977.38
2023-05-11T19:35:13.965Z,98974.22
2023-05-11T19:37:40.276Z,98979.38
2023-05-11T19:40:42.951Z,98982.94
2023-05-11T19:42:52.932Z,98989.28
2023-05-11T19:45:19.328Z,98988.88
2023-05-11T19:47:45.675Z,98986.50
2023-05-11T19:50:12.072Z,98991.66
2023-05-11T19:52:38.432Z,98988.47
2023-05-11T19:55:04.808Z,98997.56
2023-05-11T19:57:31.151Z,99000.34
2023-05-11T19:59:57.546Z,99003.50
2023-05-11T20:02:23.977Z,99001.13
2023-05-11T20:04:50.332Z,99013.00
2023-05-11T20:07:16.706Z,99002.31
2023-05-11T20:09:43.020Z,99005.50
2023-05-11T20:12:09.365Z,99010.66
2023-05-11T20:14:35.754Z,99011.81
2023-05-11T20:17:02.090Z,99015.34
2023-05-11T20:19:28.413Z,99024.06
2023-05-11T20:21:54.785Z,99021.28
2023-05-11T20:24:21.119Z,99019.66
2023-05-11T20:26:47.462Z,99022.47
2023-05-11T20:29:13.846Z,99030.38
2023-05-11T20:31:40.286Z,99029.19
2023-05-11T20:34:07.162Z,99023.63
2023-05-11T20:36:33.735Z,99025.59
2023-05-11T20:39:00.056Z,99025.22
2023-05-11T20:41:26.401Z,99026.81
2023-05-11T20:43:52.796Z,99033.53
2023-05-11T20:46:19.247Z,99031.16
2023-05-11T20:48:49.487Z,99036.69
2023-05-11T20:51:18.053Z,99040.16
2023-05-11T20:53:44.363Z,99033.47
2023-05-11T20:56:10.736Z,99038.59
2023-05-11T20:58:37.170Z,99044.13
2023-05-11T21:01:03.537Z,99043.28
2023-05-11T21:03:29.940Z,99038.56
2023-05-11T21:05:56.493Z,99046.88
2023-05-11T21:08:22.851Z,99047.66
2023-05-11T21:10:49.174Z,99046.09
2023-05-11T21:13:15.533Z,99049.63
2023-05-11T21:15:41.844Z,99048.44
2023-05-11T21:18:08.196Z,99046.84
2023-05-11T21:20:34.642Z,99052.38
2023-05-11T21:23:01.036Z,99053.16
2023-05-11T21:25:27.355Z,99051.56
2023-05-11T21:27:53.719Z,99057.09
2023-05-11T21:30:20.269Z,99057.13
2023-05-11T21:32:46.900Z,99054.69
2023-05-11T21:35:13.306Z,99061.78
2023-05-11T21:37:39.632Z,99056.25
2023-05-11T21:40:05.954Z,99067.69
2023-05-11T21:42:32.322Z,99073.63
2023-05-11T21:44:58.653Z,99067.66
2023-05-11T21:47:25.006Z,99073.22
2023-05-11T21:49:52.007Z,99064.09
2023-05-11T21:52:18.359Z,99069.22
2023-05-11T21:54:44.673Z,99071.97
2023-05-11T21:57:11.021Z,99067.59
2023-05-11T21:59:37.351Z,99058.91
2023-05-11T22:02:03.779Z,99071.06
2023-05-11T22:04:30.245Z,99065.59
2023-05-11T22:06:57.438Z,99063.66
2023-05-11T22:09:25.185Z,99067.16
2023-05-11T22:11:51.592Z,99065.91
2023-05-11T22:14:17.937Z,99070.28
2023-05-11T22:16:44.300Z,99074.19
2023-05-11T22:19:10.743Z,99069.84
2023-05-11T22:21:37.102Z,99068.22
2023-05-11T22:24:03.442Z,99078.84
2023-05-11T22:26:29.810Z,99082.75
2023-05-11T22:28:56.115Z,99079.13
2023-05-11T22:31:22.457Z,99077.53
2023-05-11T22:33:48.819Z,99074.78
2023-05-11T22:36:15.137Z,99081.47
2023-05-11T22:38:41.528Z,99084.19
2023-05-11T22:41:23.036Z,99085.63
2023-05-11T22:43:49.458Z,99092.34
2023-05-11T22:46:15.814Z,99091.56
2023-05-11T22:48:42.192Z,99086.03
2023-05-11T22:51:08.595Z,99084.41
2023-05-11T22:53:34.917Z,99082.81
2023-05-11T22:56:01.285Z,99077.59
2023-05-11T22:58:27.746Z,99080.75
2023-05-11T23:00:54.107Z,99081.06
2023-05-11T23:03:20.611Z,99083.75
2023-05-11T23:05:47.173Z,99087.69
2023-05-11T23:08:13.491Z,99087.69
2023-05-11T23:10:39.886Z,99092.78
2023-05-11T23:13:06.191Z,99089.56
2023-05-11T23:15:32.547Z,99090.69
2023-05-11T23:17:59.143Z,99095.25
2023-05-11T23:20:25.554Z,99083.75
2023-05-11T23:22:51.888Z,99083.31
2023-05-11T23:25:18.250Z,99073.03
2023-05-11T23:27:44.584Z,99076.44
2023-05-11T23:30:10.888Z,99086.47
2023-05-11T23:32:37.431Z,99093.06
2023-05-11T23:35:03.862Z,99082.72
2023-05-11T23:37:30.213Z,99091.81
2023-05-11T23:39:56.584Z,99083.91
2023-05-11T23:42:22.905Z,99079.13
2023-05-11T23:44:49.258Z,99082.25
2023-05-11T23:47:15.730Z,99081.38
2023-05-11T23:49:42.064Z,99078.63
2023-05-11T23:52:08.378Z,99073.56
2023-05-11T23:54:34.752Z,99081.03
2023-05-11T23:57:01.095Z,99080.56
2023-05-11T23:59:27.411Z,99075.00
